createdAt,value
2023-03-22T00:01:19.701Z,100871.56
2023-03-22T00:03:47.830Z,100863.75
2023-03-22T00:06:16.373Z,100868.09
2023-03-22T00:08:43.629Z,100863.75
2023-03-22T00:11:12.640Z,100862.00
2023-03-22T00:13:39.761Z,100859.41
2023-03-22T00:16:07.363Z,100855.91
2023-03-22T00:18:34.256Z,100860.28
2023-03-22T00:21:01.830Z,100856.78
2023-03-22T00:23:29.337Z,100851.59
2023-03-22T00:25:56.650Z,100861.16
2023-03-22T00:28:24.363Z,100855.06
2023-03-22T00:30:58.126Z,100851.56
2023-03-22T00:33:28.321Z,100847.22
2023-03-22T00:36:02.537Z,100839.41
2023-03-22T00:38:43.769Z,100845.50
2023-03-22T00:41:18.910Z,100847.19
2023-03-22T00:43:47.144Z,100840.22
2023-03-22T00:46:16.159Z,100844.59
2023-03-22T00:48:43.401Z,100844.59
2023-03-22T00:51:10.893Z,100828.91
2023-03-22T00:53:42.414Z,100837.59
2023-03-22T00:56:14.297Z,100829.81
2023-03-22T00:58:51.760Z,100827.16
2023-03-22T01:01:18.667Z,100821.06
2023-03-22T01:03:49.762Z,100835.00
2023-03-22T01:06:16.792Z,100835.88
2023-03-22T01:08:44.060Z,100830.66
2023-03-22T01:11:10.960Z,100835.88
2023-03-22T01:13:38.803Z,100840.22
2023-03-22T01:16:07.233Z,100825.44
2023-03-22T01:18:35.150Z,100815.00
2023-03-22T01:21:02.620Z,100829.78
2023-03-22T01:23:29.910Z,100821.97
2023-03-22T01:25:56.823Z,100821.09
2023-03-22T01:28:26.909Z,100816.75
2023-03-22T01:30:55.268Z,100812.38
2023-03-22T01:33:22.421Z,100812.41
2023-03-22T01:35:51.511Z,100810.66
2023-03-22T01:38:19.004Z,100808.03
2023-03-22T01:40:53.105Z,100800.22
2023-03-22T01:43:20.846Z,100792.38
2023-03-22T01:45:52.263Z,100790.63
2023-03-22T01:48:34.177Z,100793.25
2023-03-22T01:51:08.951Z,100797.59
2023-03-22T01:54:03.957Z,100786.31
2023-03-22T01:56:36.368Z,100782.81
2023-03-22T01:59:08.064Z,100777.59
2023-03-22T02:01:52.277Z,100767.16
2023-03-22T02:04:25.497Z,100773.22
2023-03-22T02:06:54.304Z,100772.38
2023-03-22T02:09:24.208Z,100775.84
2023-03-22T02:12:14.866Z,100772.38
2023-03-22T02:14:58.672Z,100774.13
2023-03-22T02:18:06.539Z,100773.25
2023-03-22T02:21:11.233Z,100775.00
2023-03-22T02:24:24.740Z,100766.28
2023-03-22T02:27:23.023Z,100763.66
2023-03-22T02:30:44.145Z,100753.25
2023-03-22T02:33:43.702Z,100745.41
2023-03-22T02:36:55.275Z,100745.41
2023-03-22T02:40:05.607Z,100747.16
2023-03-22T02:42:56.530Z,100748.00
2023-03-22T02:45:36.908Z,100751.50
2023-03-22T02:48:18.874Z,100741.94
2023-03-22T02:50:53.786Z,100745.41
2023-03-22T02:54:18.688Z,100750.63
2023-03-22T02:57:00.295Z,100747.16
2023-03-22T02:59:29.728Z,100740.19
2023-03-22T03:02:00.965Z,100739.31
2023-03-22T03:04:33.166Z,100742.81
2023-03-22T03:07:07.298Z,100742.78
2023-03-22T03:09:34.423Z,100741.94
2023-03-22T03:12:01.323Z,100745.41
2023-03-22T03:14:32.824Z,100744.56
2023-03-22T03:17:35.070Z,100741.06
2023-03-22T03:20:47.681Z,100738.44
2023-03-22T03:23:51.206Z,100742.78
2023-03-22T03:26:35.540Z,100734.97
2023-03-22T03:29:29.966Z,100733.22
2023-03-22T03:32:13.059Z,100733.22
2023-03-22T03:34:55.007Z,100730.63
2023-03-22T03:37:35.608Z,100728.03
2023-03-22T03:40:18.580Z,100730.63
2023-03-22T03:42:51.785Z,100728.00
2023-03-22T03:45:19.761Z,100724.53
2023-03-22T03:47:55.496Z,100734.09
2023-03-22T03:50:23.523Z,100728.91
2023-03-22T03:52:52.458Z,100737.59
2023-03-22T03:55:21.048Z,100727.16
2023-03-22T03:57:48.062Z,100730.63
2023-03-22T04:00:15.957Z,100729.75
2023-03-22T04:03:21.417Z,100728.91
2023-03-22T04:06:08.999Z,100721.94
2023-03-22T04:08:38.441Z,100724.53
2023-03-22T04:11:06.183Z,100721.94
2023-03-22T04:13:33.708Z,100720.19
2023-03-22T04:16:03.909Z,100733.22
2023-03-22T04:18:34.793Z,100721.94
2023-03-22T04:21:05.562Z,100730.66
2023-03-22T04:23:41.059Z,100718.44
2023-03-22T04:26:08.125Z,100712.38
2023-03-22T04:28:44.957Z,100720.19
2023-03-22T04:31:12.378Z,100718.44
2023-03-22T04:33:47.372Z,100720.19
2023-03-22T04:36:45.280Z,100711.50
2023-03-22T04:39:18.429Z,100719.34
2023-03-22T04:41:55.056Z,100718.44
2023-03-22T04:44:22.773Z,100716.72
2023-03-22T04:46:51.062Z,100714.09
2023-03-22T04:49:18.313Z,100706.28
2023-03-22T04:51:45.551Z,100707.16
2023-03-22T04:54:22.955Z,100701.06
2023-03-22T04:56:50.497Z,100701.06
2023-03-22T04:59:20.333Z,100697.56
2023-03-22T05:01:49.880Z,100688.88
2023-03-22T05:04:20.994Z,100682.81
2023-03-22T05:06:51.538Z,100672.38
2023-03-22T05:09:24.947Z,100677.59
2023-03-22T05:11:53.790Z,100661.06
2023-03-22T05:14:41.042Z,100659.34
2023-03-22T05:17:11.192Z,100659.34
2023-03-22T05:19:39.806Z,100646.31
2023-03-22T05:22:06.820Z,100655.88
2023-03-22T05:24:42.958Z,100653.25
2023-03-22T05:27:14.363Z,100648.91
2023-03-22T05:29:44.822Z,100659.34
2023-03-22T05:32:25.468Z,100652.38
2023-03-22T05:34:54.250Z,100649.78
2023-03-22T05:37:30.724Z,100648.91
2023-03-22T05:39:58.249Z,100646.28
2023-03-22T05:42:36.633Z,100652.41
2023-03-22T05:45:11.841Z,100650.63
2023-03-22T05:47:39.585Z,100652.38
2023-03-22T05:50:16.367Z,100645.41
2023-03-22T05:52:44.707Z,100651.50
2023-03-22T05:55:23.252Z,100646.28
2023-03-22T05:57:56.530Z,100636.72
2023-03-22T06:00:25.485Z,100646.25
2023-03-22T06:03:16.963Z,100655.84
2023-03-22T06:05:50.652Z,100649.75
2023-03-22T06:08:19.527Z,100649.75
2023-03-22T06:10:51.014Z,100650.63
2023-03-22T06:13:21.612Z,100659.31
2023-03-22T06:15:48.963Z,100660.16
2023-03-22T06:18:20.109Z,100655.81
2023-03-22T06:20:55.569Z,100648.84
2023-03-22T06:23:23.822Z,100665.34
2023-03-22T06:25:50.791Z,100670.56
2023-03-22T06:28:18.160Z,100674.91
2023-03-22T06:30:54.102Z,100665.38
2023-03-22T06:33:39.966Z,100668.84
2023-03-22T06:36:18.832Z,100680.16
2023-03-22T06:39:02.900Z,100689.72
2023-03-22T06:41:30.276Z,100676.66
2023-03-22T06:43:57.345Z,100669.69
2023-03-22T06:46:50.186Z,100672.31
2023-03-22T06:49:52.212Z,100674.91
2023-03-22T06:52:24.290Z,100667.09
2023-03-22T06:54:52.041Z,100667.94
2023-03-22T06:57:19.747Z,100667.09
2023-03-22T06:59:46.688Z,100659.25
2023-03-22T07:02:14.078Z,100662.75
2023-03-22T07:04:46.845Z,100650.56
2023-03-22T07:07:14.231Z,100655.78
2023-03-22T07:09:41.162Z,100651.44
2023-03-22T07:12:08.334Z,100649.69
2023-03-22T07:14:35.513Z,100644.47
2023-03-22T07:17:24.758Z,100639.25
2023-03-22T07:19:52.076Z,100637.47
2023-03-22T07:22:22.265Z,100647.06
2023-03-22T07:24:57.656Z,100639.19
2023-03-22T07:27:27.234Z,100636.56
2023-03-22T07:29:54.467Z,100642.66
2023-03-22T07:32:22.334Z,100646.09
2023-03-22T07:34:58.167Z,100626.94
2023-03-22T07:37:25.660Z,100619.97
2023-03-22T07:39:52.665Z,100621.66
2023-03-22T07:42:19.657Z,100632.09
2023-03-22T07:45:20.188Z,100611.16
2023-03-22T07:48:09.795Z,100617.25
2023-03-22T07:50:56.535Z,100611.09
2023-03-22T07:53:26.493Z,100611.06
2023-03-22T07:55:53.670Z,100604.94
2023-03-22T07:58:20.600Z,100608.38
2023-03-22T08:00:49.697Z,100597.03
2023-03-22T08:03:37.660Z,100604.88
2023-03-22T08:06:13.418Z,100607.44
2023-03-22T08:08:40.521Z,100596.13
2023-03-22T08:11:08.140Z,100610.03
2023-03-22T08:13:35.692Z,100612.59
2023-03-22T08:16:02.679Z,100612.56
2023-03-22T08:18:31.583Z,100610.78
2023-03-22T08:21:00.512Z,100609.00
2023-03-22T08:23:40.841Z,100612.47
2023-03-22T08:26:31.274Z,100609.84
2023-03-22T08:29:08.765Z,100610.69
2023-03-22T08:31:37.405Z,100615.84
2023-03-22T08:34:04.340Z,100616.66
2023-03-22T08:36:31.729Z,100632.34
2023-03-22T08:39:03.125Z,100625.28
2023-03-22T08:41:44.326Z,100633.06
2023-03-22T08:44:11.579Z,100639.09
2023-03-22T08:46:38.532Z,100632.06
2023-03-22T08:49:06.154Z,100635.47
2023-03-22T08:51:40.925Z,100625.81
2023-03-22T08:54:16.443Z,100629.25
2023-03-22T08:56:52.058Z,100619.53
2023-03-22T08:59:37.532Z,100627.34
2023-03-22T09:02:25.325Z,100617.69
2023-03-22T09:04:53.361Z,100610.59
2023-03-22T09:07:20.807Z,100609.63
2023-03-22T09:09:56.584Z,100605.22
2023-03-22T09:12:25.218Z,100599.88
2023-03-22T09:14:52.615Z,100596.28
2023-03-22T09:17:22.047Z,100596.13
2023-03-22T09:19:51.390Z,100595.16
2023-03-22T09:22:20.998Z,100593.28
2023-03-22T09:24:50.447Z,100585.31
2023-03-22T09:27:17.608Z,100587.84
2023-03-22T09:29:44.722Z,100584.25
2023-03-22T09:32:17.256Z,100582.34
2023-03-22T09:34:48.775Z,100575.28
2023-03-22T09:37:15.674Z,100576.06
2023-03-22T09:39:49.319Z,100570.78
2023-03-22T09:42:29.191Z,100578.63
2023-03-22T09:44:58.114Z,100583.84
2023-03-22T09:47:47.266Z,100569.75
2023-03-22T09:50:30.377Z,100563.53
2023-03-22T09:52:58.077Z,100567.81
2023-03-22T09:55:41.209Z,100557.22
2023-03-22T09:58:41.081Z,100558.06
2023-03-22T10:01:38.153Z,100555.38
2023-03-22T10:04:41.328Z,100556.16
2023-03-22T10:07:34.201Z,100549.91
2023-03-22T10:10:10.093Z,100543.72
2023-03-22T10:12:39.158Z,100546.22
2023-03-22T10:15:20.247Z,100540.03
2023-03-22T10:17:53.575Z,100542.50
2023-03-22T10:20:39.222Z,100533.69
2023-03-22T10:23:18.286Z,100525.72
2023-03-22T10:25:45.918Z,100514.28
2023-03-22T10:28:25.156Z,100513.28
2023-03-22T10:30:55.898Z,100510.53
2023-03-22T10:33:50.505Z,100501.72
2023-03-22T10:36:21.211Z,100503.19
2023-03-22T10:38:57.818Z,100500.34
2023-03-22T10:41:25.802Z,100497.53
2023-03-22T10:43:58.963Z,100499.09
2023-03-22T10:46:31.452Z,100494.56
2023-03-22T10:49:01.049Z,100495.31
2023-03-22T10:51:50.461Z,100495.19
2023-03-22T10:54:21.413Z,100487.19
2023-03-22T10:56:48.321Z,100482.69
2023-03-22T10:59:49.225Z,100484.31
2023-03-22T11:02:32.454Z,100478.09
2023-03-22T11:05:05.152Z,100480.47
2023-03-22T11:07:33.888Z,100482.88
2023-03-22T11:10:09.432Z,100481.75
2023-03-22T11:12:45.269Z,100482.47
2023-03-22T11:15:35.298Z,100477.88
2023-03-22T11:18:13.201Z,100483.78
2023-03-22T11:20:56.986Z,100471.41
2023-03-22T11:23:25.450Z,100476.53
2023-03-22T11:25:57.088Z,100470.28
2023-03-22T11:28:49.665Z,100469.34
2023-03-22T11:31:20.493Z,100464.91
2023-03-22T11:33:58.749Z,100452.84
2023-03-22T11:36:26.692Z,100465.72
2023-03-22T11:39:03.616Z,100444.66
2023-03-22T11:41:36.193Z,100440.22
2023-03-22T11:44:07.754Z,100432.25
2023-03-22T11:46:36.306Z,100426.88
2023-03-22T11:49:08.117Z,100424.97
2023-03-22T11:51:38.552Z,100417.78
2023-03-22T11:54:13.422Z,100414.16
2023-03-22T11:56:46.062Z,100414.13
2023-03-22T11:59:30.301Z,100416.56
2023-03-22T12:02:12.728Z,100414.00
2023-03-22T12:04:44.611Z,100410.47
2023-03-22T12:07:17.334Z,100402.59
2023-03-22T12:10:11.121Z,100413.94
2023-03-22T12:12:45.916Z,100401.63
2023-03-22T12:15:31.857Z,100393.66
2023-03-22T12:18:26.520Z,100396.06
2023-03-22T12:21:01.410Z,100387.97
2023-03-22T12:23:31.727Z,100392.38
2023-03-22T12:26:12.518Z,100390.47
2023-03-22T12:28:43.862Z,100387.75
2023-03-22T12:31:22.585Z,100392.00
2023-03-22T12:33:54.282Z,100396.38
2023-03-22T12:36:33.632Z,100385.88
2023-03-22T12:39:02.940Z,100390.06
2023-03-22T12:41:38.489Z,100387.31
2023-03-22T12:44:19.029Z,100384.59
2023-03-22T12:47:06.639Z,100371.22
2023-03-22T12:49:49.847Z,100368.44
2023-03-22T12:52:23.790Z,100380.69
2023-03-22T12:54:52.614Z,100377.06
2023-03-22T12:57:19.848Z,100371.66
2023-03-22T12:59:51.593Z,100376.78
2023-03-22T13:02:35.313Z,100363.50
2023-03-22T13:05:06.698Z,100360.78
2023-03-22T13:07:52.069Z,100348.53
2023-03-22T13:10:31.711Z,100359.03
2023-03-22T13:13:19.624Z,100356.31
2023-03-22T13:16:09.232Z,100353.59
2023-03-22T13:18:36.271Z,100351.59
2023-03-22T13:21:23.421Z,100348.78
2023-03-22T13:24:10.107Z,100359.94
2023-03-22T13:26:46.061Z,100359.66
2023-03-22T13:29:38.238Z,100348.16
2023-03-22T13:32:28.564Z,100330.44
2023-03-22T13:34:56.401Z,100354.81
2023-03-22T13:37:44.460Z,100346.06
2023-03-22T13:40:32.292Z,100345.31
2023-03-22T13:43:25.770Z,100348.06
2023-03-22T13:46:11.736Z,100333.94
2023-03-22T13:49:26.568Z,100342.72
2023-03-22T13:51:56.009Z,100332.03
2023-03-22T13:54:38.658Z,100328.50
2023-03-22T13:57:20.791Z,100324.00
2023-03-22T14:00:15.551Z,100335.19
2023-03-22T14:02:44.868Z,100328.06
2023-03-22T14:05:22.349Z,100328.00
2023-03-22T14:07:56.797Z,100336.59
2023-03-22T14:10:48.659Z,100314.81
2023-03-22T14:13:26.223Z,100331.81
2023-03-22T14:16:26.494Z,100335.13
2023-03-22T14:18:53.637Z,100327.09
2023-03-22T14:21:31.161Z,100330.66
